Time;durP1;ratioP1;P1;durP2;ratioP2;P2;SDS_P1;SDS_P2;PMS_P1;PMS_P2;Temp;Humidity;BMP_temperature;BMP_pressure;BME280_temperature;BME280_humidity;BME280_pressure;Samples;Min_cycle;Max_cycle;Signal;HPM_P1;HPM_P2
2021/12/20 00:01:13;;;;;;;8.82;5.65;;;4.80;99.90;;;4.01;100.00;98452.75;4980244;28;20039;-70
2021/12/20 00:03:40;;;;;;;8.85;5.65;;;4.80;99.90;;;4.03;100.00;98452.75;4977742;28;20436;-67
2021/12/20 00:06:07;;;;;;;9.00;5.47;;;4.80;99.90;;;4.01;100.00;98451.91;4978581;28;20412;-67
2021/12/20 00:08:36;;;;;;;10.00;6.43;;;4.80;99.90;;;4.08;100.00;98451.03;4982419;28;20097;-66
2021/12/20 00:11:04;;;;;;;8.57;5.63;;;4.80;99.90;;;4.05;100.00;98457.03;4978963;28;20455;-69
2021/12/20 00:13:31;;;;;;;7.85;5.03;;;4.90;99.90;;;4.10;100.00;98444.16;4977945;28;20124;-69
2021/12/20 00:15:58;;;;;;;8.35;5.00;;;4.90;99.90;;;4.25;100.00;98443.28;4978626;28;20515;-69
2021/12/20 00:18:25;;;;;;;8.57;5.55;;;5.00;99.90;;;4.43;100.00;98440.66;4977851;28;20086;-69
2021/12/20 00:20:52;;;;;;;6.85;4.38;;;5.00;99.90;;;4.42;100.00;98436.34;4975791;28;20209;-66
2021/12/20 00:23:19;;;;;;;14.73;6.47;;;5.00;99.90;;;4.22;100.00;98433.88;4976392;28;20121;-67
2021/12/20 00:25:48;;;;;;;12.27;6.03;;;5.00;99.90;;;4.13;100.00;98433.91;4980472;28;20046;-67
2021/12/20 00:28:18;;;;;;;9.50;5.80;;;4.90;99.90;;;4.23;100.00;98434.72;4981540;28;20042;-67
2021/12/20 00:30:51;;;;;;;8.60;5.22;;;5.00;99.90;;;4.19;100.00;98423.59;4975678;28;20174;-69
2021/12/20 00:33:18;;;;;;;7.30;4.85;;;5.00;99.90;;;4.30;100.00;98428.69;4981975;28;20133;-70
2021/12/20 00:35:46;;;;;;;9.32;6.10;;;5.00;99.90;;;4.15;100.00;98429.59;4982051;28;20057;-67
2021/12/20 00:41:00;;;;;;;9.98;6.38;;;4.90;99.90;;;4.21;100.00;98423.59;4975612;28;20070;-70
2021/12/20 00:43:26;;;;;;;8.60;5.68;;;5.00;99.90;;;4.25;100.00;98425.28;4978438;28;20145;-67
2021/12/20 00:45:53;;;;;;;10.00;6.18;;;5.00;99.90;;;4.27;100.00;98423.56;4979337;28;20125;-70
2021/12/20 00:48:20;;;;;;;8.70;4.90;;;5.00;99.90;;;4.33;100.00;98419.28;4981959;28;20481;-67
2021/12/20 00:50:48;;;;;;;8.10;5.40;;;5.00;99.90;;;4.38;100.00;98411.53;4979924;28;20054;-67
2021/12/20 00:53:16;;;;;;;8.57;5.22;;;5.00;99.90;;;4.35;100.00;98407.25;4978310;28;20058;-68
2021/12/20 00:55:43;;;;;;;9.77;6.03;;;4.90;99.90;;;4.40;100.00;98412.34;4977127;28;20142;-67
2021/12/20 00:58:10;;;;;;;9.93;6.30;;;4.90;99.90;;;4.30;100.00;98416.69;4979457;28;20217;-67
2021/12/20 01:00:51;;;;;;;10.50;6.78;;;5.00;99.90;;;4.12;100.00;98415.03;4978329;28;20121;-67
2021/12/20 01:03:20;;;;;;;9.65;5.82;;;5.00;99.90;;;4.10;100.00;98415.91;4980696;28;20043;-67
2021/12/20 01:05:48;;;;;;;9.25;6.15;;;4.90;99.90;;;4.22;100.00;98418.47;4976186;28;20054;-67
2021/12/20 01:08:16;;;;;;;8.32;5.07;;;5.00;99.90;;;4.20;100.00;98409.91;4979758;28;20046;-67
2021/12/20 01:10:50;;;;;;;12.57;6.50;;;5.00;99.90;;;4.19;100.00;98411.59;4977932;28;20050;-67
2021/12/20 01:13:20;;;;;;;9.30;5.03;;;4.90;99.90;;;4.30;100.00;98405.56;4979416;28;20046;-67
2021/12/20 01:15:51;;;;;;;10.43;5.25;;;5.00;99.90;;;4.30;100.00;98406.41;4977721;28;20134;-67
2021/12/20 01:18:21;;;;;;;11.45;6.35;;;5.00;99.90;;;4.04;100.00;98419.38;4979445;28;20078;-66
2021/12/20 01:20:48;;;;;;;9.75;5.93;;;4.90;99.90;;;4.01;100.00;98416.78;4973844;28;20137;-69
2021/12/20 01:23:16;;;;;;;8.02;5.32;;;4.80;99.90;;;4.07;100.00;98405.66;4978442;28;20121;-69
2021/12/20 01:25:44;;;;;;;8.10;4.57;;;4.80;99.90;;;4.11;100.00;98405.63;4981144;28;20126;-68
2021/12/20 01:28:12;;;;;;;9.60;6.00;;;4.90;99.90;;;4.23;100.00;98396.19;4976421;28;20217;-69
2021/12/20 01:30:40;;;;;;;9.02;6.03;;;4.90;99.90;;;4.26;100.00;98407.28;4981843;28;20058;-69
2021/12/20 01:33:09;;;;;;;8.95;5.50;;;5.00;99.90;;;4.13;100.00;98403.06;4980841;28;20085;-68
2021/12/20 01:35:37;;;;;;;7.05;4.80;;;4.90;99.90;;;4.21;100.00;98396.16;4978164;28;20137;-69
2021/12/20 01:38:05;;;;;;;12.00;5.65;;;4.90;99.90;;;4.19;100.00;98403.03;4977033;28;20055;-69
2021/12/20 01:40:34;;;;;;;11.02;7.05;;;4.90;99.90;;;4.09;100.00;98394.50;4977816;28;20141;-68
2021/12/20 01:43:01;;;;;;;11.90;7.43;;;4.90;99.90;;;4.00;100.00;98402.25;4976324;28;20129;-68
2021/12/20 01:45:29;;;;;;;11.30;6.68;;;4.90;99.90;;;4.09;100.00;98409.06;4983921;28;20096;-69
2021/12/20 01:48:05;;;;;;;10.55;6.00;;;4.80;99.90;;;4.26;100.00;98403.88;4967702;28;20570;-69
2021/12/20 01:53:29;;;;;;;9.50;5.90;;;4.90;99.90;;;4.43;100.00;98401.25;4978385;28;20186;-68
2021/12/20 01:55:57;;;;;;;9.52;6.30;;;4.90;99.90;;;4.26;100.00;98396.16;4981362;28;20082;-68
2021/12/20 01:58:26;;;;;;;10.70;5.47;;;4.90;99.90;;;4.31;100.00;98391.84;4984252;28;20046;-68
2021/12/20 02:03:41;;;;;;;9.73;5.80;;;4.90;99.90;;;4.36;100.00;98400.41;4978334;28;20125;-69
2021/12/20 02:06:33;;;;;;;9.68;5.90;;;4.90;99.90;;;4.36;100.00;98396.13;4976519;28;20398;-69
2021/12/20 02:09:13;;;;;;;11.35;5.88;;;5.00;99.90;;;4.08;100.00;98403.09;4982913;28;20183;-67
2021/12/20 02:11:46;;;;;;;11.68;7.15;;;4.90;99.90;;;3.89;100.00;98398.84;4985407;28;20132;-69
2021/12/20 02:14:14;;;;;;;8.47;5.47;;;4.70;99.90;;;3.93;100.00;98401.41;4986097;28;20145;-67
2021/12/20 02:16:43;;;;;;;9.90;6.05;;;4.70;99.90;;;3.82;100.00;98402.31;4984189;28;20316;-69
2021/12/20 02:19:14;;;;;;;15.82;7.85;;;4.70;99.90;;;3.83;100.00;98397.16;4976970;28;20122;-69
2021/12/20 02:21:44;;;;;;;9.13;5.53;;;4.70;99.90;;;4.09;100.00;98396.22;4981208;28;20329;-69
2021/12/20 02:24:12;;;;;;;8.45;5.10;;;4.70;99.90;;;4.04;100.00;98395.38;4980432;28;20122;-69
2021/12/20 02:26:40;;;;;;;10.23;5.20;;;4.80;99.90;;;3.97;100.00;98395.41;4975791;28;20138;-68
2021/12/20 02:29:09;;;;;;;9.10;6.00;;;4.80;99.90;;;3.97;100.00;98386.84;4984185;28;20105;-69
2021/12/20 02:37:41;;;;;;;9.85;5.53;;;4.60;99.90;;;3.81;100.00;98387.72;4990906;28;20137;-69
2021/12/20 02:40:01;;;;;;;10.15;5.70;;;4.70;99.90;;;3.85;100.00;98385.16;4980094;28;20483;-69
2021/12/20 02:42:36;;;;;;;7.57;4.43;;;4.60;99.90;;;3.96;100.00;98382.56;4978602;28;20070;-69
2021/12/20 02:45:13;;;;;;;10.55;6.00;;;4.70;99.90;;;3.86;100.00;98380.91;4989132;28;20077;-68
2021/12/20 02:47:44;;;;;;;7.93;4.68;;;4.70;99.90;;;3.80;100.00;98375.78;4977302;28;20073;-69
2021/12/20 02:50:13;;;;;;;11.23;5.70;;;4.60;99.90;;;3.81;100.00;98380.03;4989369;28;20047;-69
2021/12/20 02:52:41;;;;;;;9.75;5.68;;;4.60;99.90;;;3.84;100.00;98382.63;4975158;28;20083;-68
2021/12/20 02:55:10;;;;;;;8.65;5.05;;;4.60;99.90;;;3.79;100.00;98380.06;4986556;28;20092;-69
2021/12/20 02:57:38;;;;;;;8.65;5.57;;;4.70;99.90;;;3.86;100.00;98381.75;4979574;28;20146;-69
2021/12/20 03:00:09;;;;;;;8.48;4.40;;;4.70;99.90;;;3.97;100.00;98379.16;4976320;28;20217;-69
2021/12/20 03:02:37;;;;;;;8.00;4.50;;;4.70;99.90;;;3.92;100.00;98375.72;4976810;28;20043;-69
2021/12/20 03:05:07;;;;;;;9.30;5.13;;;4.70;99.90;;;4.14;100.00;98369.66;4981036;28;20093;-69
2021/12/20 03:07:43;;;;;;;6.80;3.78;;;4.70;99.90;;;4.16;100.00;98369.66;4975620;28;20535;-69
2021/12/20 03:10:11;;;;;;;8.68;4.55;;;4.70;99.90;;;4.17;100.00;98371.34;4991771;28;20073;-69
2021/12/20 03:12:38;;;;;;;6.97;3.95;;;4.80;99.90;;;4.21;100.00;98367.06;4979494;28;20062;-68
2021/12/20 03:15:13;;;;;;;8.30;4.72;;;4.80;99.90;;;4.06;100.00;98380.81;4974355;28;20144;-69
2021/12/20 03:17:40;;;;;;;11.75;5.82;;;4.80;99.90;;;3.80;100.00;98375.78;4981170;28;20072;-69
2021/12/20 03:20:08;;;;;;;10.55;4.82;;;4.60;99.90;;;3.91;100.00;98371.47;4985812;28;20094;-69
2021/12/20 03:22:35;;;;;;;11.32;5.70;;;4.60;99.90;;;3.70;100.00;98380.09;4978518;28;20570;-69
2021/12/20 03:25:02;;;;;;;7.13;4.35;;;4.60;99.90;;;3.77;100.00;98376.63;4977439;28;20079;-69
2021/12/20 03:27:29;;;;;;;7.22;4.32;;;4.60;99.90;;;3.84;100.00;98375.75;4978206;28;20097;-69
2021/12/20 03:29:56;;;;;;;9.23;4.82;;;4.60;99.90;;;3.92;100.00;98373.16;4976079;28;20084;-68
2021/12/20 03:32:23;;;;;;;11.30;5.53;;;4.60;99.90;;;3.85;100.00;98376.59;4978161;28;20442;-69
2021/12/20 03:34:50;;;;;;;9.65;5.78;;;4.60;99.90;;;3.61;100.00;98375.81;4972951;28;20048;-68
2021/12/20 03:37:17;;;;;;;11.27;6.68;;;4.50;99.90;;;3.65;100.00;98376.66;4981993;28;20078;-69
2021/12/20 03:39:45;;;;;;;9.23;5.78;;;4.50;99.90;;;3.85;100.00;98379.16;4974089;28;20081;-68
2021/12/20 03:42:12;;;;;;;11.23;6.50;;;4.60;99.90;;;3.81;100.00;98377.47;4984530;28;20514;-69
2021/12/20 03:44:44;;;;;;;13.20;7.32;;;4.60;99.90;;;3.78;100.00;98375.75;4983461;28;20137;-70
2021/12/20 03:47:13;;;;;;;12.55;6.88;;;4.60;99.90;;;3.72;100.00;98380.94;4980936;28;20070;-69
2021/12/20 03:49:42;;;;;;;14.40;6.75;;;4.50;99.90;;;3.66;100.00;98371.53;4984462;28;20129;-69
2021/12/20 03:52:10;;;;;;;12.13;6.70;;;4.50;99.90;;;3.65;100.00;98376.66;4984906;28;20135;-69
2021/12/20 03:54:37;;;;;;;11.45;6.55;;;4.50;99.90;;;3.60;100.00;98363.81;4988768;28;20178;-69
2021/12/20 03:57:06;;;;;;;11.48;6.50;;;4.50;99.90;;;3.73;100.00;98369.78;4982159;28;20141;-69
2021/12/20 03:59:33;;;;;;;12.45;6.30;;;4.40;99.90;;;3.68;100.00;98366.38;4988563;28;20473;-68
2021/12/20 04:02:01;;;;;;;8.48;5.30;;;4.40;99.90;;;3.69;100.00;98365.50;4981932;28;20128;-68
2021/12/20 04:04:28;;;;;;;10.13;6.70;;;4.40;99.90;;;3.63;100.00;98371.53;4986547;28;20100;-69
2021/12/20 04:06:55;;;;;;;10.30;6.00;;;4.40;99.90;;;3.64;100.00;98365.53;4975891;28;20086;-69
2021/12/20 04:09:22;;;;;;;11.93;6.10;;;4.50;99.90;;;3.74;100.00;98374.06;4979514;28;20573;-68
2021/12/20 04:11:49;;;;;;;9.07;5.28;;;4.50;99.90;;;3.70;100.00;98373.22;4981143;28;20082;-69
2021/12/20 04:14:16;;;;;;;10.48;5.32;;;4.50;99.90;;;3.73;100.00;98355.22;4980808;28;20058;-69
2021/12/20 04:16:43;;;;;;;9.13;4.75;;;4.50;99.90;;;3.62;100.00;98353.56;4985862;28;20129;-69
2021/12/20 04:19:10;;;;;;;7.65;4.30;;;4.40;99.90;;;3.59;100.00;98359.56;4972687;28;20054;-69
2021/12/20 04:21:37;;;;;;;9.88;4.35;;;4.50;99.90;;;3.54;100.00;98369.84;4974451;28;20110;-69
2021/12/20 04:24:04;;;;;;;11.45;4.22;;;4.40;99.90;;;3.58;100.00;98364.69;4979228;28;20562;-68
2021/12/20 04:26:32;;;;;;;8.88;3.80;;;4.40;99.90;;;3.52;100.00;98361.28;4986444;28;20125;-69
2021/12/20 04:28:59;;;;;;;14.13;4.43;;;4.50;99.90;;;3.68;100.00;98364.66;4985735;28;20046;-69
2021/12/20 04:31:28;;;;;;;12.13;3.70;;;4.50;99.90;;;3.60;100.00;98366.38;4983532;28;20101;-69
2021/12/20 04:33:55;;;;;;;10.93;3.90;;;4.50;99.90;;;3.54;100.00;98354.44;4987069;28;20085;-68
2021/12/20 04:36:22;;;;;;;6.05;2.88;;;4.40;99.90;;;3.62;100.00;98354.41;4986651;28;20500;-69
2021/12/20 04:38:49;;;;;;;6.10;2.88;;;4.50;99.90;;;3.65;100.00;98350.97;4978664;28;20175;-69
2021/12/20 04:41:16;;;;;;;7.95;2.40;;;4.40;99.90;;;3.62;100.00;98351.84;4976089;28;20062;-69
2021/12/20 04:43:43;;;;;;;5.97;2.30;;;4.50;99.90;;;3.67;100.00;98344.13;4975099;28;20125;-69
2021/12/20 04:46:10;;;;;;;3.58;1.40;;;4.50;99.90;;;3.73;100.00;98346.69;4981052;28;20047;-69
2021/12/20 04:48:37;;;;;;;8.20;2.15;;;4.50;99.90;;;3.68;100.00;98346.69;4986189;28;20069;-68
2021/12/20 04:51:04;;;;;;;6.93;2.13;;;4.50;99.90;;;3.72;100.00;98343.28;4979416;28;20070;-69
2021/12/20 04:53:31;;;;;;;5.20;1.75;;;4.50;99.90;;;3.74;100.00;98343.25;4982852;28;20125;-69
2021/12/20 04:55:58;;;;;;;5.20;1.63;;;4.60;99.90;;;3.72;100.00;98342.41;4987856;28;20144;-68
2021/12/20 04:58:25;;;;;;;6.65;1.75;;;4.60;99.90;;;3.72;100.00;98347.56;4979394;28;20061;-69
2021/12/20 05:00:52;;;;;;;8.27;1.73;;;4.50;99.90;;;3.69;100.00;98350.97;4979849;28;20086;-69
2021/12/20 05:03:19;;;;;;;10.25;1.42;;;4.60;99.90;;;3.70;100.00;98349.28;4988051;28;20049;-69
2021/12/20 05:05:46;;;;;;;6.68;2.10;;;4.60;99.90;;;3.76;100.00;98349.22;4985685;28;20406;-69
2021/12/20 05:08:15;;;;;;;4.72;1.33;;;4.50;99.90;;;3.70;100.00;98347.56;4987668;28;20473;-69
2021/12/20 05:10:43;;;;;;;9.70;1.95;;;4.50;99.90;;;3.77;100.00;98350.97;4971054;28;20043;-69
2021/12/20 05:13:13;;;;;;;6.38;1.00;;;4.60;99.90;;;3.87;100.00;98344.91;4976343;28;20051;-69
2021/12/20 05:15:44;;;;;;;8.27;1.23;;;4.60;99.90;;;3.84;100.00;98346.66;4980496;28;20054;-69
2021/12/20 05:18:11;;;;;;;7.65;1.30;;;4.60;99.90;;;3.84;100.00;98347.50;4988667;28;20078;-69
2021/12/20 05:20:38;;;;;;;6.82;1.45;;;4.60;99.90;;;3.79;100.00;98349.25;4986770;28;20133;-69
2021/12/20 05:23:07;;;;;;;5.85;1.27;;;4.60;99.90;;;3.75;100.00;98352.66;4977983;28;20502;-69
2021/12/20 05:25:37;;;;;;;12.23;1.30;;;4.60;99.90;;;3.78;100.00;98355.22;4989923;28;20042;-69
2021/12/20 05:28:05;;;;;;;8.52;1.02;;;4.60;99.90;;;3.88;100.00;98349.22;4980562;28;20129;-68
2021/12/20 05:30:32;;;;;;;4.70;1.27;;;4.60;99.90;;;3.87;100.00;98349.19;4984355;28;20055;-69
2021/12/20 05:32:59;;;;;;;7.45;1.08;;;4.60;99.90;;;3.83;100.00;98350.94;4976443;28;20055;-68
2021/12/20 05:35:27;;;;;;;5.93;1.05;;;4.60;99.90;;;3.89;100.00;98343.19;4987009;28;20054;-69
2021/12/20 05:37:54;;;;;;;6.15;1.27;;;4.60;99.90;;;3.85;100.00;98354.34;4975546;28;20463;-69
2021/12/20 05:40:21;;;;;;;7.05;1.10;;;4.60;99.90;;;3.76;100.00;98354.38;4997768;28;20129;-69
2021/12/20 05:42:49;;;;;;;5.25;1.40;;;4.50;99.90;;;3.84;100.00;98352.66;4983316;28;20510;-69
2021/12/20 05:45:17;;;;;;;3.97;0.90;;;4.50;99.90;;;3.85;100.00;98361.19;4985983;28;20046;-69
2021/12/20 05:47:45;;;;;;;7.57;1.40;;;4.50;99.90;;;3.86;100.00;98352.66;4981382;28;20042;-69
2021/12/20 05:50:16;;;;;;;5.47;1.00;;;4.60;99.90;;;3.97;100.00;98361.16;4982073;28;20085;-69
2021/12/20 05:52:44;;;;;;;6.00;0.90;;;4.60;99.90;;;3.89;100.00;98361.19;4975750;28;20054;-69
2021/12/20 05:55:11;;;;;;;5.63;0.90;;;4.60;99.90;;;3.89;100.00;98362.91;4989258;28;20100;-68
2021/12/20 05:57:39;;;;;;;7.85;1.10;;;4.50;99.90;;;3.87;100.00;98369.75;4982784;28;20507;-70
2021/12/20 06:00:14;;;;;;;3.10;0.70;;;4.50;99.90;;;3.91;100.00;98371.47;4989836;28;20105;-69
2021/12/20 06:02:43;;;;;;;7.03;0.65;;;4.50;99.90;;;4.04;100.00;98369.69;4989166;28;20058;-69
2021/12/20 06:05:11;;;;;;;7.85;1.35;;;4.60;99.90;;;3.97;100.00;98379.16;4980816;28;20125;-68
2021/12/20 06:07:41;;;;;;;11.30;1.20;;;4.60;99.90;;;3.92;100.00;98376.59;4983841;28;20049;-69
2021/12/20 06:10:15;;;;;;;4.13;1.05;;;4.60;99.90;;;3.82;100.00;98376.63;4987662;28;20050;-69
2021/12/20 06:12:43;;;;;;;11.65;1.52;;;4.60;99.90;;;3.80;100.00;98380.91;4980889;28;20535;-69
2021/12/20 06:15:11;;;;;;;3.85;1.10;;;4.50;99.90;;;3.73;100.00;98380.06;4983401;28;20544;-69
2021/12/20 06:17:39;;;;;;;7.63;1.02;;;4.50;99.90;;;3.59;100.00;98380.09;4989372;28;20085;-69
2021/12/20 06:20:10;;;;;;;5.63;1.05;;;4.50;99.90;;;3.71;100.00;98385.19;4983883;28;20108;-68
2021/12/20 06:22:37;;;;;;;6.55;1.60;;;4.40;99.90;;;3.69;100.00;98378.34;4984316;28;20462;-69
2021/12/20 06:25:05;;;;;;;6.70;1.33;;;4.40;99.90;;;3.62;100.00;98380.06;4974156;28;20584;-68
2021/12/20 06:27:32;;;;;;;6.80;1.92;;;4.40;99.90;;;3.48;100.00;98381.81;4979845;28;20050;-69
2021/12/20 06:29:59;;;;;;;9.70;1.27;;;4.30;99.90;;;3.43;100.00;98380.97;4979464;28;20078;-68
2021/12/20 06:32:26;;;;;;;4.22;1.30;;;4.30;99.90;;;3.58;100.00;98383.53;4982046;28;20137;-69
2021/12/20 06:34:53;;;;;;;4.72;1.00;;;4.30;99.90;;;3.71;100.00;98382.63;4975914;28;20050;-69
2021/12/20 06:37:20;;;;;;;5.07;1.20;;;4.30;99.90;;;3.63;100.00;98388.66;5004286;28;20054;-69
2021/12/20 06:39:47;;;;;;;4.70;1.00;;;4.30;99.90;;;3.67;100.00;98382.63;4991841;28;20507;-69
2021/12/20 06:42:14;;;;;;;7.57;1.15;;;4.30;99.90;;;3.52;100.00;98381.81;4990061;28;20133;-69
2021/12/20 06:44:42;;;;;;;3.50;1.13;;;4.30;99.90;;;3.34;100.00;98380.13;4978086;28;20177;-69
2021/12/20 06:47:09;;;;;;;10.05;1.60;;;4.20;99.90;;;3.30;100.00;98378.41;4973503;28;20043;-68
2021/12/20 06:49:36;;;;;;;7.93;0.95;;;4.20;99.90;;;3.42;100.00;98386.94;4973396;28;20384;-69
2021/12/20 06:52:03;;;;;;;5.78;0.95;;;4.20;99.90;;;3.66;100.00;98388.63;4985998;28;20085;-69
2021/12/20 06:54:30;;;;;;;4.57;1.30;;;4.20;99.90;;;3.60;100.00;98396.34;4975369;28;20077;-68
2021/12/20 06:56:57;;;;;;;9.10;1.17;;;4.30;99.90;;;3.63;100.00;98386.94;4978581;28;20149;-68
2021/12/20 06:59:25;;;;;;;5.35;0.80;;;4.30;99.90;;;3.65;100.00;98389.47;4984897;28;20373;-68
2021/12/20 07:01:52;;;;;;;5.93;1.05;;;4.30;99.90;;;3.69;100.00;98393.75;4976928;28;20517;-69
2021/12/20 07:04:19;;;;;;;5.85;1.00;;;4.40;99.90;;;3.71;100.00;98395.47;4975731;28;20134;-69
2021/12/20 07:06:46;;;;;;;16.20;2.60;;;4.40;99.90;;;3.61;100.00;98404.06;4977849;28;20130;-69
2021/12/20 07:09:13;;;;;;;5.65;0.88;;;4.30;99.90;;;3.61;100.00;98401.50;4980637;28;20769;-68
2021/12/20 07:11:42;;;;;;;2.00;0.80;;;4.30;99.90;;;3.70;100.00;98400.63;4982262;28;20521;-67
2021/12/20 07:14:10;;;;;;;5.57;1.00;;;4.30;99.90;;;3.64;100.00;98398.91;4986030;28;20096;-68
2021/12/20 07:16:40;;;;;;;2.78;0.98;;;4.30;99.90;;;3.69;100.00;98394.59;4981105;28;20077;-68
2021/12/20 07:19:07;;;;;;;6.65;1.00;;;4.30;99.90;;;3.75;100.00;98401.47;4980076;28;20082;-69
2021/12/20 07:21:34;;;;;;;4.65;0.88;;;4.30;99.90;;;3.88;100.00;98405.72;4986181;28;20129;-69
2021/12/20 07:24:01;;;;;;;5.20;1.05;;;4.30;99.90;;;3.65;100.00;98400.63;4987084;28;20129;-69
2021/12/20 07:26:30;;;;;;;4.03;0.90;;;4.30;99.90;;;3.79;100.00;98408.31;4981391;28;20043;-69
2021/12/20 07:28:57;;;;;;;4.55;0.95;;;4.40;99.90;;;3.73;100.00;98411.72;4986970;28;20058;-69
2021/12/20 07:31:24;;;;;;;9.48;1.20;;;4.30;99.90;;;3.66;100.00;98409.19;4983863;28;20081;-69
2021/12/20 07:33:51;;;;;;;4.88;1.00;;;4.30;99.90;;;3.54;100.00;98402.34;4983346;28;20144;-69
2021/12/20 07:36:21;;;;;;;8.70;1.65;;;4.30;99.90;;;3.51;100.00;98410.03;4979909;28;20046;-68
2021/12/20 07:38:50;;;;;;;5.28;0.82;;;4.30;99.90;;;3.47;100.00;98409.22;4981185;28;20134;-68
2021/12/20 07:41:23;;;;;;;5.18;1.02;;;4.30;99.90;;;3.34;100.00;98413.47;4979329;28;20116;-67
2021/12/20 07:43:51;;;;;;;5.78;1.45;;;4.20;99.90;;;3.31;100.00;98417.78;4982146;28;20085;-68
2021/12/20 07:46:19;;;;;;;2.78;0.73;;;4.20;99.90;;;3.30;100.00;98414.31;4982312;28;20053;-68
2021/12/20 07:48:46;;;;;;;5.57;1.00;;;4.10;99.90;;;3.32;100.00;98410.06;4984170;28;20053;-69
2021/12/20 07:51:13;;;;;;;4.75;0.95;;;4.10;99.90;;;3.43;100.00;98417.75;4977267;28;20078;-69
2021/12/20 07:53:41;;;;;;;4.60;1.05;;;4.10;99.90;;;3.44;100.00;98414.31;4983334;28;20129;-68
2021/12/20 07:56:09;;;;;;;6.00;1.33;;;4.10;99.90;;;3.38;100.00;98421.19;4977176;28;20074;-69
2021/12/20 07:58:36;;;;;;;8.65;1.00;;;4.10;99.90;;;3.33;100.00;98416.03;4982778;28;20152;-70
2021/12/20 08:01:04;;;;;;;7.22;1.40;;;4.10;99.90;;;3.32;100.00;98417.75;4982543;28;20137;-70
2021/12/20 08:03:33;;;;;;;6.57;1.30;;;4.10;99.90;;;3.23;100.00;98419.47;4972571;28;20100;-69
2021/12/20 08:06:01;;;;;;;3.35;0.98;;;4.10;99.90;;;3.40;100.00;98417.78;4979999;28;20371;-69
2021/12/20 08:08:28;;;;;;;5.20;1.30;;;4.20;99.90;;;3.58;100.00;98424.59;4983886;28;20481;-69
2021/12/20 08:10:55;;;;;;;4.13;1.23;;;4.20;99.90;;;3.64;100.00;98418.59;4986123;28;20080;-69
2021/12/20 08:13:22;;;;;;;10.40;1.40;;;4.30;99.90;;;3.54;100.00;98416.03;4976941;28;20082;-69
2021/12/20 08:15:53;;;;;;;5.47;1.20;;;4.30;99.90;;;3.53;100.00;98426.28;4981291;28;20049;-70
2021/12/20 08:18:20;;;;;;;6.65;1.40;;;4.30;99.90;;;3.72;100.00;98411.75;4984870;28;20046;-69
2021/12/20 08:20:48;;;;;;;5.95;1.63;;;4.40;99.90;;;3.66;100.00;98420.28;4978303;28;20096;-69
2021/12/20 08:23:15;;;;;;;8.05;1.70;;;4.40;99.90;;;3.71;100.00;98426.28;4987050;28;20390;-69
2021/12/20 08:25:43;;;;;;;5.82;1.40;;;4.50;99.90;;;3.88;100.00;98427.97;4976146;28;20407;-69
2021/12/20 08:28:10;;;;;;;7.53;1.50;;;4.60;99.90;;;3.81;100.00;98428.81;4982081;28;20038;-69
2021/12/20 08:30:37;;;;;;;8.63;1.73;;;4.60;99.90;;;3.89;100.00;98434.81;4988766;28;20128;-69
2021/12/20 08:33:06;;;;;;;7.70;1.55;;;4.60;99.90;;;3.77;100.00;98436.53;5004169;28;20137;-69
2021/12/20 08:35:33;;;;;;;10.52;1.60;;;4.70;99.90;;;3.88;100.00;98431.41;4983788;28;20124;-68
2021/12/20 08:38:00;;;;;;;6.53;1.50;;;4.70;99.90;;;4.09;100.00;98434.78;4983743;28;20080;-70
2021/12/20 08:40:28;;;;;;;7.63;2.03;;;4.80;99.90;;;3.98;100.00;98434.78;4972922;28;20097;-69
2021/12/20 08:42:55;;;;;;;5.57;1.35;;;4.80;99.90;;;3.93;100.00;98433.94;4978327;28;20141;-69
2021/12/20 08:45:23;;;;;;;9.50;2.03;;;4.80;99.90;;;3.96;100.00;98432.22;4984855;28;20058;-69
2021/12/20 08:47:51;;;;;;;8.57;1.60;;;4.80;99.90;;;3.92;100.00;98434.78;4977812;28;20042;-70
2021/12/20 08:50:21;;;;;;;9.32;1.88;;;4.80;99.90;;;4.05;100.00;98441.63;4979720;28;20054;-68
2021/12/20 08:52:49;;;;;;;8.32;1.83;;;4.90;99.90;;;4.03;100.00;98443.34;4987471;28;20133;-69
2021/12/20 08:55:17;;;;;;;6.88;1.42;;;4.90;99.90;;;3.96;100.00;98439.91;4986400;28;20136;-69
2021/12/20 08:57:44;;;;;;;8.40;1.83;;;4.90;99.90;;;3.98;100.00;98440.78;4986262;28;20134;-68
2021/12/20 09:00:19;;;;;;;9.85;2.08;;;4.90;99.90;;;3.94;100.00;98441.63;4976409;28;20078;-69
2021/12/20 09:02:47;;;;;;;7.90;2.10;;;4.90;99.90;;;4.07;100.00;98442.47;4985186;28;20521;-69
2021/12/20 09:05:14;;;;;;;7.32;2.25;;;4.90;99.90;;;4.07;100.00;98446.75;4984401;28;20062;-68
2021/12/20 09:07:42;;;;;;;8.98;2.22;;;5.00;99.90;;;4.10;100.00;98439.88;4985750;28;20141;-68
2021/12/20 09:10:12;;;;;;;9.27;2.25;;;4.90;99.90;;;4.08;100.00;98446.78;4978659;28;20137;-69
2021/12/20 09:12:40;;;;;;;7.43;2.70;;;5.00;99.90;;;4.06;100.00;98450.16;4989912;28;20054;-69
2021/12/20 09:15:09;;;;;;;10.05;2.38;;;5.00;99.90;;;3.98;100.00;98443.34;4983824;28;20046;-66
2021/12/20 09:17:36;;;;;;;11.63;2.67;;;5.00;99.90;;;4.09;100.00;98450.19;4986806;28;20482;-68
2021/12/20 09:20:04;;;;;;;8.90;2.38;;;5.00;99.90;;;4.21;100.00;98452.72;4987718;28;20133;-69
2021/12/20 09:22:38;;;;;;;11.70;2.22;;;5.10;99.90;;;4.33;100.00;98456.94;4985862;28;20129;-69
2021/12/20 09:25:06;;;;;;;18.17;2.70;;;5.20;99.90;;;4.30;100.00;98462.09;4985730;28;20554;-69
2021/12/20 09:27:33;;;;;;;8.98;2.95;;;5.20;99.90;;;4.28;100.00;98462.09;4987900;28;20470;-69
2021/12/20 09:30:00;;;;;;;15.90;3.08;;;5.20;99.90;;;4.14;100.00;98461.31;4987333;28;20466;-67
2021/12/20 09:32:27;;;;;;;15.90;3.90;;;5.20;99.90;;;4.02;100.00;98464.75;4989766;28;20043;-68
2021/12/20 09:34:54;;;;;;;10.05;2.70;;;5.00;99.90;;;4.06;100.00;98471.59;4987981;28;20510;-69
2021/12/20 09:37:21;;;;;;;16.10;4.00;;;5.10;99.90;;;4.14;100.00;98467.28;4982929;28;20534;-69
2021/12/20 09:39:53;;;;;;;12.32;2.60;;;5.10;99.90;;;4.30;100.00;98472.38;4985497;28;20425;-69
2021/12/20 09:42:22;;;;;;;16.35;2.97;;;5.20;99.90;;;4.25;100.00;98472.41;4984194;28;20108;-69
2021/12/20 09:44:49;;;;;;;8.50;2.47;;;5.10;99.90;;;4.27;100.00;98468.13;4983241;28;20490;-69
2021/12/20 09:47:16;;;;;;;20.55;2.90;;;5.20;99.90;;;4.46;100.00;98471.47;4984914;28;20058;-69
2021/12/20 09:49:43;;;;;;;11.18;2.47;;;5.30;99.90;;;4.76;100.00;98470.47;4983461;28;20574;-69
2021/12/20 09:52:11;;;;;;;20.02;3.00;;;5.50;99.90;;;4.45;100.00;98466.31;4980619;28;20064;-69
2021/12/20 09:54:39;;;;;;;13.15;2.38;;;5.40;99.90;;;4.22;100.00;98462.16;4982344;28;20150;-68
2021/12/20 09:57:10;;;;;;;16.80;3.08;;;5.40;99.90;;;4.25;100.00;98469.84;4981848;28;20080;-68
2021/12/20 09:59:39;;;;;;;16.88;2.33;;;5.30;99.90;;;4.21;100.00;98470.69;4979956;28;20605;-69
2021/12/20 10:02:08;;;;;;;14.05;2.20;;;5.30;99.90;;;4.32;100.00;98455.25;4978745;28;20462;-68
2021/12/20 10:04:36;;;;;;;13.27;2.80;;;5.30;99.90;;;4.38;100.00;98461.22;4983473;28;20074;-68
2021/12/20 10:07:04;;;;;;;17.10;2.58;;;5.30;99.90;;;4.42;100.00;98469.75;4984809;28;20537;-69
2021/12/20 10:09:33;;;;;;;12.23;2.47;;;5.40;99.90;;;4.47;100.00;98462.91;4980101;28;20043;-68
2021/12/20 10:12:17;;;;;;;13.15;2.88;;;5.40;99.90;;;4.18;100.00;98463.00;4982702;28;20174;-68
2021/12/20 10:15:07;;;;;;;15.50;2.67;;;5.30;99.90;;;4.29;100.00;98465.53;4982699;28;20378;-69
2021/12/20 10:17:59;;;;;;;12.60;2.28;;;5.30;99.90;;;4.51;100.00;98461.16;4982664;28;20996;-68
2021/12/20 10:20:34;;;;;;;8.68;2.53;;;5.40;99.90;;;4.57;100.00;98468.88;4979270;28;20478;-69
2021/12/20 10:23:32;;;;;;;16.88;2.33;;;5.50;99.90;;;4.76;100.00;98462.75;4981076;28;20125;-69
2021/12/20 10:26:13;;;;;;;11.20;2.30;;;5.70;99.90;;;4.86;100.00;98462.69;4971032;28;20100;-69
2021/12/20 10:28:42;;;;;;;16.58;1.92;;;5.80;99.90;;;4.67;100.00;98460.22;4974805;28;20074;-69
2021/12/20 10:31:15;;;;;;;13.35;2.08;;;5.80;99.90;;;4.53;100.00;98456.88;4978676;28;20078;-68
2021/12/20 10:33:56;;;;;;;12.63;1.98;;;5.70;99.90;;;4.57;100.00;98462.00;4976644;28;20464;-69
2021/12/20 10:36:24;;;;;;;17.23;2.78;;;5.70;99.90;;;4.55;100.00;98458.56;4979891;28;20415;-68
2021/12/20 10:38:56;;;;;;;11.60;1.63;;;5.60;99.90;;;4.89;100.00;98453.25;4985962;28;20075;-69
2021/12/20 10:41:35;;;;;;;12.30;1.92;;;5.80;99.90;;;5.02;100.00;98452.34;4977541;28;20078;-69
2021/12/20 10:44:16;;;;;;;8.75;2.20;;;5.90;99.90;;;4.76;100.00;98449.91;4983021;28;20046;-69